SBRJSBSC

Guest
Details From SBRJ - Santos-dumont
To SBSC - Santa Cruz
Flight Number -
Tags Real
Created
Modified
Stats Distance 31 nm / 58 km
Max Altitude 0 ft / 0 m
Waypoints 2
Social Downloads 5
Likes 0
Share VATSIM

Download

Looking for another format? Having issues loading an existing format? Contact us
Advertisement - Login to hide

Notes

None

Route

SBRJ SBSC

ID Type Via Altitude Latitude Longitude Leg Dist Tot Dist Heading (true) Name
O SBRJ APT - 0 ft / 0 m -22.91603˚ -43.16328˚ - 0 nm - -
O SBSC APT - 0 ft / 0 m -22.94379˚ -43.72459˚ 31 nm 31 nm 267° / 267° -

Altitude Profile

Advertisement - Login to hide

SBRJ

Details ICAO SBRJ (SDU)
Name Santos-Dumont
Region Brazil
Timezone Unknown (UTC+0.0)
Stats Elevation 11 ft / 3 m (AMSL)
Location -22.910460° -43.163133°
Runways 2
Magnetic Variation 22.781° W

METAR

SBRJ 111500Z 15007KT 9999 FEW020 30/22 Q1004

Decode

TAF

TAF SBRJ 110740Z 1112/1124 02005KT 7000 SCT020 TX31/1117Z TN23/1124Z BECMG 1112/1114 12010KT BECMG 1116/1118 15010KT BECMG 1120/1122 17007KT RMK PGW

Decode

Departure Runways

ID Width Length Bearing (true) Bearing (mag) Surface Threshold Offset Overrun Length
02L 98 ft / 30 m 4,154 ft / 1,266 m 358.02° 20.80° Asphalt 0 ft / 0 m 80 ft / 24 m
02R 138 ft / 42 m 4,361 ft / 1,329 m 358.01° 20.79° Asphalt 0 ft / 0 m 80 ft / 24 m
20L 138 ft / 42 m 4,361 ft / 1,329 m 178.01° 200.79° Asphalt 0 ft / 0 m 80 ft / 24 m
20R 98 ft / 30 m 4,154 ft / 1,266 m 178.02° 200.80° Asphalt 0 ft / 0 m 95 ft / 29 m

SBSC

Details ICAO SBSC (STU)
Name SANTA CRUZ
Region Brazil
Timezone America/Sao_Paulo (UTC-2.0)
Stats Elevation 10 ft / 3 m (AMSL)
Location -22.932489° -43.719090°
Runways 1
Magnetic Variation 22.585° W

METAR

SBSC 111400Z 02006KT CAVOK 33/22 Q1004

Decode

TAF

TAF SBSC 110740Z 1112/1124 34005KT 7000 SCT020 TX30/1117Z TN23/1124Z BECMG 1112/1114 03010KT BECMG 1116/1118 18010KT BECMG 1120/1122 22007KT RMK PGW

Decode

Destination Runways

ID Width Length Bearing (true) Bearing (mag) Surface Threshold Offset Overrun Length
05 148 ft / 45 m 9,039 ft / 2,755 m 24.13° 46.72° Asphalt 0 ft / 0 m 1,145 ft / 349 m
23 148 ft / 45 m 9,039 ft / 2,755 m 204.12° 226.71° Asphalt 0 ft / 0 m 1,145 ft / 349 m

Popular Alternatives